sensor_id;sensor_type;location;lat;lon;timestamp;temperature;humidity
18502;DHT22;68437;52.236;5.710;2023-05-02T00:01:04;10.80;99.90
18502;DHT22;68437;52.236;5.710;2023-05-02T00:03:31;10.80;99.90
18502;DHT22;68437;52.236;5.710;2023-05-02T00:06:00;10.90;99.90
18502;DHT22;68437;52.236;5.710;2023-05-02T00:08:27;10.90;99.90
18502;DHT22;68437;52.236;5.710;2023-05-02T00:10:53;10.80;99.90
18502;DHT22;68437;52.236;5.710;2023-05-02T00:13:21;10.80;99.90
18502;DHT22;68437;52.236;5.710;2023-05-02T00:15:47;10.80;99.90
18502;DHT22;68437;52.236;5.710;2023-05-02T00:18:14;10.80;99.90
18502;DHT22;68437;52.236;5.710;2023-05-02T00:20:41;10.80;99.90
18502;DHT22;68437;52.236;5.710;2023-05-02T00:23:09;10.80;99.90
18502;DHT22;68437;52.236;5.710;2023-05-02T00:25:43;10.80;99.90
18502;DHT22;68437;52.236;5.710;2023-05-02T00:28:10;10.90;99.90
18502;DHT22;68437;52.236;5.710;2023-05-02T00:30:41;10.80;99.90
18502;DHT22;68437;52.236;5.710;2023-05-02T00:33:08;10.90;99.90
18502;DHT22;68437;52.236;5.710;2023-05-02T00:35:37;10.90;99.90
18502;DHT22;68437;52.236;5.710;2023-05-02T00:38:03;10.90;99.90
18502;DHT22;68437;52.236;5.710;2023-05-02T00:40:41;10.80;99.90
18502;DHT22;68437;52.236;5.710;2023-05-02T00:43:08;10.80;99.90
18502;DHT22;68437;52.236;5.710;2023-05-02T00:45:35;10.90;99.90
18502;DHT22;68437;52.236;5.710;2023-05-02T00:48:02;10.90;99.90
18502;DHT22;68437;52.236;5.710;2023-05-02T00:50:30;10.80;99.90
18502;DHT22;68437;52.236;5.710;2023-05-02T00:52:59;10.70;99.90
18502;DHT22;68437;52.236;5.710;2023-05-02T00:55:26;10.70;99.90
18502;DHT22;68437;52.236;5.710;2023-05-02T00:57:54;10.70;99.90
18502;DHT22;68437;52.236;5.710;2023-05-02T01:00:26;10.60;99.90
18502;DHT22;68437;52.236;5.710;2023-05-02T01:03:02;10.40;99.90
18502;DHT22;68437;52.236;5.710;2023-05-02T01:05:37;10.50;99.90
18502;DHT22;68437;52.236;5.710;2023-05-02T01:08:12;10.40;99.90
18502;DHT22;68437;52.236;5.710;2023-05-02T01:10:48;10.40;99.90
18502;DHT22;68437;52.236;5.710;2023-05-02T01:13:21;10.40;99.90
18502;DHT22;68437;52.236;5.710;2023-05-02T01:15:50;10.30;99.90
18502;DHT22;68437;52.236;5.710;2023-05-02T01:18:20;10.30;99.90
18502;DHT22;68437;52.236;5.710;2023-05-02T01:20:52;10.20;99.90
18502;DHT22;68437;52.236;5.710;2023-05-02T01:23:27;10.20;99.90
18502;DHT22;68437;52.236;5.710;2023-05-02T01:26:05;10.10;99.90
18502;DHT22;68437;52.236;5.710;2023-05-02T01:28:46;10.10;99.90
18502;DHT22;68437;52.236;5.710;2023-05-02T01:31:14;10.00;99.90
18502;DHT22;68437;52.236;5.710;2023-05-02T01:33:43;10.00;99.90
18502;DHT22;68437;52.236;5.710;2023-05-02T01:36:12;9.90;99.90
18502;DHT22;68437;52.236;5.710;2023-05-02T01:38:41;9.80;99.90
18502;DHT22;68437;52.236;5.710;2023-05-02T01:41:10;9.80;99.90
18502;DHT22;68437;52.236;5.710;2023-05-02T01:43:38;9.70;99.90
18502;DHT22;68437;52.236;5.710;2023-05-02T01:46:08;9.70;99.90
18502;DHT22;68437;52.236;5.710;2023-05-02T01:48:36;9.70;99.90
18502;DHT22;68437;52.236;5.710;2023-05-02T01:51:05;9.70;99.90
18502;DHT22;68437;52.236;5.710;2023-05-02T01:53:33;9.70;99.90
18502;DHT22;68437;52.236;5.710;2023-05-02T01:56:02;9.60;99.90
18502;DHT22;68437;52.236;5.710;2023-05-02T01:58:29;9.60;99.90
18502;DHT22;68437;52.236;5.710;2023-05-02T02:00:59;9.70;99.90
18502;DHT22;68437;52.236;5.710;2023-05-02T02:03:29;9.70;99.90
18502;DHT22;68437;52.236;5.710;2023-05-02T02:05:57;9.70;99.90
18502;DHT22;68437;52.236;5.710;2023-05-02T02:08:25;9.70;99.90
18502;DHT22;68437;52.236;5.710;2023-05-02T02:10:56;9.70;99.90
18502;DHT22;68437;52.236;5.710;2023-05-02T02:13:26;9.70;99.90
18502;DHT22;68437;52.236;5.710;2023-05-02T02:15:58;9.70;99.90
18502;DHT22;68437;52.236;5.710;2023-05-02T02:18:28;9.80;99.90
18502;DHT22;68437;52.236;5.710;2023-05-02T02:20:58;9.80;99.90
18502;DHT22;68437;52.236;5.710;2023-05-02T02:23:26;9.70;99.90
18502;DHT22;68437;52.236;5.710;2023-05-02T02:25:54;9.70;99.90
18502;DHT22;68437;52.236;5.710;2023-05-02T02:28:22;9.80;99.90
18502;DHT22;68437;52.236;5.710;2023-05-02T02:30:49;9.70;99.90
18502;DHT22;68437;52.236;5.710;2023-05-02T02:33:16;9.70;99.90
18502;DHT22;68437;52.236;5.710;2023-05-02T02:35:49;9.70;99.90
18502;DHT22;68437;52.236;5.710;2023-05-02T02:38:22;9.80;99.90
18502;DHT22;68437;52.236;5.710;2023-05-02T02:40:54;9.70;99.90
18502;DHT22;68437;52.236;5.710;2023-05-02T02:43:26;9.70;99.90
18502;DHT22;68437;52.236;5.710;2023-05-02T02:46:00;9.70;99.90
18502;DHT22;68437;52.236;5.710;2023-05-02T02:48:33;9.80;99.90
18502;DHT22;68437;52.236;5.710;2023-05-02T02:51:08;9.70;99.90
18502;DHT22;68437;52.236;5.710;2023-05-02T02:53:45;9.70;99.90
18502;DHT22;68437;52.236;5.710;2023-05-02T02:56:21;9.70;99.90
18502;DHT22;68437;52.236;5.710;2023-05-02T02:58:56;9.70;99.90
18502;DHT22;68437;52.236;5.710;2023-05-02T03:01:26;9.70;99.90
18502;DHT22;68437;52.236;5.710;2023-05-02T03:03:54;9.80;99.90
18502;DHT22;68437;52.236;5.710;2023-05-02T03:06:24;9.80;99.90
18502;DHT22;68437;52.236;5.710;2023-05-02T03:08:52;9.80;99.90
18502;DHT22;68437;52.236;5.710;2023-05-02T03:11:18;9.80;99.90
18502;DHT22;68437;52.236;5.710;2023-05-02T03:13:45;9.80;99.90
18502;DHT22;68437;52.236;5.710;2023-05-02T03:16:34;9.80;99.90
18502;DHT22;68437;52.236;5.710;2023-05-02T03:19:02;9.80;99.90
18502;DHT22;68437;52.236;5.710;2023-05-02T03:21:31;9.70;99.90
18502;DHT22;68437;52.236;5.710;2023-05-02T03:23:59;9.70;99.90
18502;DHT22;68437;52.236;5.710;2023-05-02T03:26:26;9.80;99.90
18502;DHT22;68437;52.236;5.710;2023-05-02T03:28:53;9.70;99.90
18502;DHT22;68437;52.236;5.710;2023-05-02T03:31:20;9.70;99.90
18502;DHT22;68437;52.236;5.710;2023-05-02T03:33:47;9.70;99.90
18502;DHT22;68437;52.236;5.710;2023-05-02T03:36:14;9.70;99.90
18502;DHT22;68437;52.236;5.710;2023-05-02T03:38:42;9.70;99.90
18502;DHT22;68437;52.236;5.710;2023-05-02T03:41:09;9.70;99.90
18502;DHT22;68437;52.236;5.710;2023-05-02T03:43:36;9.70;99.90
18502;DHT22;68437;52.236;5.710;2023-05-02T03:46:04;10.30;99.90
18502;DHT22;68437;52.236;5.710;2023-05-02T03:48:32;9.70;99.90
18502;DHT22;68437;52.236;5.710;2023-05-02T03:51:00;9.60;99.90
18502;DHT22;68437;52.236;5.710;2023-05-02T03:53:27;9.50;99.90
18502;DHT22;68437;52.236;5.710;2023-05-02T03:55:56;9.40;99.90
18502;DHT22;68437;52.236;5.710;2023-05-02T03:58:23;9.40;99.90
18502;DHT22;68437;52.236;5.710;2023-05-02T04:00:50;9.40;99.90
18502;DHT22;68437;52.236;5.710;2023-05-02T04:03:18;9.40;99.90
18502;DHT22;68437;52.236;5.710;2023-05-02T04:05:44;9.40;99.90
18502;DHT22;68437;52.236;5.710;2023-05-02T04:08:11;9.40;99.90
18502;DHT22;68437;52.236;5.710;2023-05-02T04:10:38;9.40;99.90
18502;DHT22;68437;52.236;5.710;2023-05-02T04:13:06;9.30;99.90
18502;DHT22;68437;52.236;5.710;2023-05-02T04:15:33;9.40;99.90
18502;DHT22;68437;52.236;5.710;2023-05-02T04:18:00;9.40;99.90
18502;DHT22;68437;52.236;5.710;2023-05-02T04:20:27;9.30;99.90
18502;DHT22;68437;52.236;5.710;2023-05-02T04:22:54;9.40;99.90
18502;DHT22;68437;52.236;5.710;2023-05-02T04:25:21;9.30;99.90
18502;DHT22;68437;52.236;5.710;2023-05-02T04:27:47;9.30;99.90
18502;DHT22;68437;52.236;5.710;2023-05-02T04:30:16;9.20;99.90
18502;DHT22;68437;52.236;5.710;2023-05-02T04:32:43;9.30;99.90
18502;DHT22;68437;52.236;5.710;2023-05-02T04:35:09;9.20;99.90
18502;DHT22;68437;52.236;5.710;2023-05-02T04:37:36;9.10;99.90
18502;DHT22;68437;52.236;5.710;2023-05-02T04:40:04;9.00;99.90
18502;DHT22;68437;52.236;5.710;2023-05-02T04:42:31;9.00;99.90
18502;DHT22;68437;52.236;5.710;2023-05-02T04:44:58;9.00;99.90
18502;DHT22;68437;52.236;5.710;2023-05-02T04:47:26;8.90;99.90
18502;DHT22;68437;52.236;5.710;2023-05-02T04:49:53;8.80;99.90
18502;DHT22;68437;52.236;5.710;2023-05-02T04:52:19;8.80;99.90
18502;DHT22;68437;52.236;5.710;2023-05-02T04:54:46;8.80;99.90
18502;DHT22;68437;52.236;5.710;2023-05-02T04:57:13;8.80;99.90
18502;DHT22;68437;52.236;5.710;2023-05-02T04:59:40;8.80;99.90
18502;DHT22;68437;52.236;5.710;2023-05-02T05:02:07;8.90;99.90
18502;DHT22;68437;52.236;5.710;2023-05-02T05:04:38;8.90;99.90
18502;DHT22;68437;52.236;5.710;2023-05-02T05:07:04;8.90;99.90
18502;DHT22;68437;52.236;5.710;2023-05-02T05:09:31;8.80;99.90
18502;DHT22;68437;52.236;5.710;2023-05-02T05:11:58;8.80;99.90
18502;DHT22;68437;52.236;5.710;2023-05-02T05:14:26;8.70;99.90
18502;DHT22;68437;52.236;5.710;2023-05-02T05:16:53;8.70;99.90
18502;DHT22;68437;52.236;5.710;2023-05-02T05:19:20;8.70;99.90
18502;DHT22;68437;52.236;5.710;2023-05-02T05:21:48;8.70;99.90
18502;DHT22;68437;52.236;5.710;2023-05-02T05:24:14;8.60;99.90
18502;DHT22;68437;52.236;5.710;2023-05-02T05:26:41;8.60;99.90
18502;DHT22;68437;52.236;5.710;2023-05-02T05:29:08;8.60;99.90
18502;DHT22;68437;52.236;5.710;2023-05-02T05:31:35;8.60;99.90
18502;DHT22;68437;52.236;5.710;2023-05-02T05:34:01;8.50;99.90
18502;DHT22;68437;52.236;5.710;2023-05-02T05:36:29;8.50;99.90
18502;DHT22;68437;52.236;5.710;2023-05-02T05:38:58;8.50;99.90
18502;DHT22;68437;52.236;5.710;2023-05-02T05:41:25;8.60;99.90
18502;DHT22;68437;52.236;5.710;2023-05-02T05:43:52;8.60;99.90
18502;DHT22;68437;52.236;5.710;2023-05-02T05:46:18;8.60;99.90
18502;DHT22;68437;52.236;5.710;2023-05-02T05:48:45;8.60;99.90
18502;DHT22;68437;52.236;5.710;2023-05-02T05:51:12;8.60;99.90
18502;DHT22;68437;52.236;5.710;2023-05-02T05:53:39;8.80;99.90
18502;DHT22;68437;52.236;5.710;2023-05-02T05:56:11;8.80;99.90
18502;DHT22;68437;52.236;5.710;2023-05-02T05:58:39;8.80;99.90
18502;DHT22;68437;52.236;5.710;2023-05-02T06:01:07;8.80;99.90
18502;DHT22;68437;52.236;5.710;2023-05-02T06:03:34;8.70;99.90
18502;DHT22;68437;52.236;5.710;2023-05-02T06:06:00;8.70;99.90
18502;DHT22;68437;52.236;5.710;2023-05-02T06:08:27;8.70;99.90
18502;DHT22;68437;52.236;5.710;2023-05-02T06:10:54;8.70;99.90
18502;DHT22;68437;52.236;5.710;2023-05-02T06:13:22;8.80;99.90
18502;DHT22;68437;52.236;5.710;2023-05-02T06:15:49;8.70;99.90
18502;DHT22;68437;52.236;5.710;2023-05-02T06:18:16;8.70;99.90
18502;DHT22;68437;52.236;5.710;2023-05-02T06:20:43;8.70;99.90
18502;DHT22;68437;52.236;5.710;2023-05-02T06:23:10;8.70;99.90
18502;DHT22;68437;52.236;5.710;2023-05-02T06:25:37;8.80;99.90
18502;DHT22;68437;52.236;5.710;2023-05-02T06:28:04;8.90;99.90
18502;DHT22;68437;52.236;5.710;2023-05-02T06:30:33;8.90;99.90
18502;DHT22;68437;52.236;5.710;2023-05-02T06:33:03;8.90;99.90
18502;DHT22;68437;52.236;5.710;2023-05-02T06:35:30;9.00;99.90
18502;DHT22;68437;52.236;5.710;2023-05-02T06:37:57;9.00;99.90
18502;DHT22;68437;52.236;5.710;2023-05-02T06:40:24;9.00;99.90
18502;DHT22;68437;52.236;5.710;2023-05-02T06:42:50;8.90;99.90
18502;DHT22;68437;52.236;5.710;2023-05-02T06:45:17;8.80;99.90
18502;DHT22;68437;52.236;5.710;2023-05-02T06:47:45;8.70;99.90
18502;DHT22;68437;52.236;5.710;2023-05-02T06:50:12;8.70;99.90
18502;DHT22;68437;52.236;5.710;2023-05-02T06:52:39;8.60;99.90
18502;DHT22;68437;52.236;5.710;2023-05-02T06:55:09;8.60;99.90
18502;DHT22;68437;52.236;5.710;2023-05-02T06:57:35;8.60;99.90
18502;DHT22;68437;52.236;5.710;2023-05-02T07:00:03;8.40;99.90
18502;DHT22;68437;52.236;5.710;2023-05-02T07:02:30;8.20;99.90
18502;DHT22;68437;52.236;5.710;2023-05-02T07:05:01;8.10;99.90
18502;DHT22;68437;52.236;5.710;2023-05-02T07:07:29;8.10;99.90
18502;DHT22;68437;52.236;5.710;2023-05-02T07:09:56;8.10;99.90
18502;DHT22;68437;52.236;5.710;2023-05-02T07:12:22;8.10;99.90
18502;DHT22;68437;52.236;5.710;2023-05-02T07:14:49;8.20;99.90
18502;DHT22;68437;52.236;5.710;2023-05-02T07:17:16;8.30;99.90
18502;DHT22;68437;52.236;5.710;2023-05-02T07:19:43;8.40;99.90
18502;DHT22;68437;52.236;5.710;2023-05-02T07:22:11;8.60;99.90
18502;DHT22;68437;52.236;5.710;2023-05-02T07:24:39;8.70;99.90
18502;DHT22;68437;52.236;5.710;2023-05-02T07:27:09;8.80;99.90
18502;DHT22;68437;52.236;5.710;2023-05-02T07:29:37;8.90;99.90
18502;DHT22;68437;52.236;5.710;2023-05-02T07:32:04;9.00;99.90
18502;DHT22;68437;52.236;5.710;2023-05-02T07:34:31;9.10;99.90
18502;DHT22;68437;52.236;5.710;2023-05-02T07:36:58;9.10;99.90
18502;DHT22;68437;52.236;5.710;2023-05-02T07:39:26;9.20;99.90
18502;DHT22;68437;52.236;5.710;2023-05-02T07:41:53;9.30;99.90
18502;DHT22;68437;52.236;5.710;2023-05-02T07:44:21;9.50;99.90
18502;DHT22;68437;52.236;5.710;2023-05-02T07:46:47;9.50;99.90
18502;DHT22;68437;52.236;5.710;2023-05-02T07:49:14;9.70;99.90
18502;DHT22;68437;52.236;5.710;2023-05-02T07:51:41;9.90;99.90
18502;DHT22;68437;52.236;5.710;2023-05-02T07:54:16;10.00;99.90
18502;DHT22;68437;52.236;5.710;2023-05-02T07:56:44;10.00;99.90
18502;DHT22;68437;52.236;5.710;2023-05-02T07:59:14;10.00;99.90
18502;DHT22;68437;52.236;5.710;2023-05-02T08:01:41;9.90;99.90
18502;DHT22;68437;52.236;5.710;2023-05-02T08:04:09;9.80;99.90
18502;DHT22;68437;52.236;5.710;2023-05-02T08:06:36;9.80;99.90
18502;DHT22;68437;52.236;5.710;2023-05-02T08:09:03;9.80;99.90
18502;DHT22;68437;52.236;5.710;2023-05-02T08:11:29;9.90;99.90
18502;DHT22;68437;52.236;5.710;2023-05-02T08:13:58;10.00;99.90
18502;DHT22;68437;52.236;5.710;2023-05-02T08:16:24;10.10;99.90
18502;DHT22;68437;52.236;5.710;2023-05-02T08:18:51;10.10;99.90
18502;DHT22;68437;52.236;5.710;2023-05-02T08:21:18;10.10;99.90
18502;DHT22;68437;52.236;5.710;2023-05-02T08:23:45;10.20;99.90
18502;DHT22;68437;52.236;5.710;2023-05-02T08:26:12;10.40;99.90
18502;DHT22;68437;52.236;5.710;2023-05-02T08:28:39;10.30;99.90
18502;DHT22;68437;52.236;5.710;2023-05-02T08:31:08;10.30;99.90
18502;DHT22;68437;52.236;5.710;2023-05-02T08:33:35;10.40;99.90
18502;DHT22;68437;52.236;5.710;2023-05-02T08:36:09;10.40;99.90
18502;DHT22;68437;52.236;5.710;2023-05-02T08:38:36;10.40;99.90
18502;DHT22;68437;52.236;5.710;2023-05-02T08:41:09;10.50;99.90
18502;DHT22;68437;52.236;5.710;2023-05-02T08:43:37;10.70;99.90
18502;DHT22;68437;52.236;5.710;2023-05-02T08:46:05;10.80;99.90
18502;DHT22;68437;52.236;5.710;2023-05-02T08:48:36;10.70;99.90
18502;DHT22;68437;52.236;5.710;2023-05-02T08:51:03;10.60;99.90
18502;DHT22;68437;52.236;5.710;2023-05-02T08:53:32;10.50;99.90
18502;DHT22;68437;52.236;5.710;2023-05-02T08:55:59;10.50;99.90
18502;DHT22;68437;52.236;5.710;2023-05-02T08:58:26;10.40;99.90
18502;DHT22;68437;52.236;5.710;2023-05-02T09:00:55;10.40;99.90
18502;DHT22;68437;52.236;5.710;2023-05-02T09:03:28;10.70;99.90
18502;DHT22;68437;52.236;5.710;2023-05-02T09:06:03;10.70;99.90
18502;DHT22;68437;52.236;5.710;2023-05-02T09:08:30;10.80;99.90
18502;DHT22;68437;52.236;5.710;2023-05-02T09:10:57;10.90;99.90
18502;DHT22;68437;52.236;5.710;2023-05-02T09:13:30;10.80;99.90
18502;DHT22;68437;52.236;5.710;2023-05-02T09:16:00;10.90;99.90
18502;DHT22;68437;52.236;5.710;2023-05-02T09:18:28;11.00;99.90
18502;DHT22;68437;52.236;5.710;2023-05-02T09:20:59;11.10;99.90
18502;DHT22;68437;52.236;5.710;2023-05-02T09:23:33;11.00;99.90
18502;DHT22;68437;52.236;5.710;2023-05-02T09:26:00;11.10;99.90
18502;DHT22;68437;52.236;5.710;2023-05-02T09:28:41;11.20;99.90
18502;DHT22;68437;52.236;5.710;2023-05-02T09:31:09;10.90;99.90
18502;DHT22;68437;52.236;5.710;2023-05-02T09:33:38;11.10;99.90
18502;DHT22;68437;52.236;5.710;2023-05-02T09:36:08;11.30;99.90
18502;DHT22;68437;52.236;5.710;2023-05-02T09:38:35;11.40;99.90
18502;DHT22;68437;52.236;5.710;2023-05-02T09:41:02;11.40;99.90
18502;DHT22;68437;52.236;5.710;2023-05-02T09:43:33;11.60;99.90
18502;DHT22;68437;52.236;5.710;2023-05-02T09:46:01;11.70;99.90
18502;DHT22;68437;52.236;5.710;2023-05-02T09:48:29;11.50;99.90
18502;DHT22;68437;52.236;5.710;2023-05-02T09:50:57;11.70;99.90
18502;DHT22;68437;52.236;5.710;2023-05-02T09:53:26;11.60;99.90
18502;DHT22;68437;52.236;5.710;2023-05-02T09:56:03;11.70;99.90
18502;DHT22;68437;52.236;5.710;2023-05-02T09:58:30;11.50;99.90
18502;DHT22;68437;52.236;5.710;2023-05-02T10:00:57;11.50;99.90
18502;DHT22;68437;52.236;5.710;2023-05-02T10:03:25;11.40;99.90
18502;DHT22;68437;52.236;5.710;2023-05-02T10:05:53;11.50;99.90
18502;DHT22;68437;52.236;5.710;2023-05-02T10:08:21;11.60;99.90
18502;DHT22;68437;52.236;5.710;2023-05-02T10:10:55;11.90;99.90
18502;DHT22;68437;52.236;5.710;2023-05-02T10:13:23;11.50;99.90
18502;DHT22;68437;52.236;5.710;2023-05-02T10:15:58;11.50;99.90
18502;DHT22;68437;52.236;5.710;2023-05-02T10:18:37;11.50;99.90
18502;DHT22;68437;52.236;5.710;2023-05-02T10:21:09;11.70;99.90
18502;DHT22;68437;52.236;5.710;2023-05-02T10:23:40;11.70;99.90
18502;DHT22;68437;52.236;5.710;2023-05-02T10:26:11;11.60;99.90
18502;DHT22;68437;52.236;5.710;2023-05-02T10:28:38;11.50;99.90
18502;DHT22;68437;52.236;5.710;2023-05-02T10:31:05;11.70;99.90
18502;DHT22;68437;52.236;5.710;2023-05-02T10:33:35;11.80;99.90
18502;DHT22;68437;52.236;5.710;2023-05-02T10:36:06;12.00;99.90
18502;DHT22;68437;52.236;5.710;2023-05-02T10:38:34;12.20;99.90
18502;DHT22;68437;52.236;5.710;2023-05-02T10:41:09;11.90;99.90
18502;DHT22;68437;52.236;5.710;2023-05-02T10:43:38;12.00;99.90
18502;DHT22;68437;52.236;5.710;2023-05-02T10:46:29;12.00;99.90
18502;DHT22;68437;52.236;5.710;2023-05-02T10:49:00;12.00;99.90
18502;DHT22;68437;52.236;5.710;2023-05-02T10:51:27;11.80;99.90
18502;DHT22;68437;52.236;5.710;2023-05-02T10:54:18;11.80;99.90
18502;DHT22;68437;52.236;5.710;2023-05-02T10:57:05;11.60;99.90
18502;DHT22;68437;52.236;5.710;2023-05-02T10:59:36;12.20;99.90
18502;DHT22;68437;52.236;5.710;2023-05-02T11:02:03;12.50;99.90
18502;DHT22;68437;52.236;5.710;2023-05-02T11:04:58;12.60;99.90
18502;DHT22;68437;52.236;5.710;2023-05-02T11:07:26;12.60;99.90
18502;DHT22;68437;52.236;5.710;2023-05-02T11:09:53;12.60;99.90
18502;DHT22;68437;52.236;5.710;2023-05-02T11:12:45;12.70;99.90
18502;DHT22;68437;52.236;5.710;2023-05-02T11:15:13;13.00;99.90
18502;DHT22;68437;52.236;5.710;2023-05-02T11:17:59;12.60;99.90
18502;DHT22;68437;52.236;5.710;2023-05-02T11:20:26;12.40;99.90
18502;DHT22;68437;52.236;5.710;2023-05-02T11:22:58;12.10;99.90
18502;DHT22;68437;52.236;5.710;2023-05-02T11:25:36;12.20;99.90
18502;DHT22;68437;52.236;5.710;2023-05-02T11:28:06;12.80;99.90
18502;DHT22;68437;52.236;5.710;2023-05-02T11:30:51;12.40;99.90
18502;DHT22;68437;52.236;5.710;2023-05-02T11:33:18;11.70;99.90
18502;DHT22;68437;52.236;5.710;2023-05-02T11:35:46;11.40;99.90
18502;DHT22;68437;52.236;5.710;2023-05-02T11:38:19;12.10;99.90
18502;DHT22;68437;52.236;5.710;2023-05-02T11:40:50;12.40;99.90
18502;DHT22;68437;52.236;5.710;2023-05-02T11:43:19;12.40;99.90
18502;DHT22;68437;52.236;5.710;2023-05-02T11:45:49;12.20;99.90
18502;DHT22;68437;52.236;5.710;2023-05-02T11:48:18;11.80;99.90
18502;DHT22;68437;52.236;5.710;2023-05-02T11:50:46;12.30;99.90
18502;DHT22;68437;52.236;5.710;2023-05-02T11:53:15;12.50;99.90
18502;DHT22;68437;52.236;5.710;2023-05-02T11:55:47;12.50;99.90
18502;DHT22;68437;52.236;5.710;2023-05-02T11:58:15;12.60;99.90
18502;DHT22;68437;52.236;5.710;2023-05-02T12:00:45;12.80;99.90
18502;DHT22;68437;52.236;5.710;2023-05-02T12:03:33;13.40;99.90
18502;DHT22;68437;52.236;5.710;2023-05-02T12:06:08;13.10;99.90
18502;DHT22;68437;52.236;5.710;2023-05-02T12:08:35;12.70;99.90
18502;DHT22;68437;52.236;5.710;2023-05-02T12:11:02;12.30;99.90
18502;DHT22;68437;52.236;5.710;2023-05-02T12:13:29;12.10;99.90
18502;DHT22;68437;52.236;5.710;2023-05-02T12:15:57;12.40;99.90
18502;DHT22;68437;52.236;5.710;2023-05-02T12:18:25;12.80;99.90
18502;DHT22;68437;52.236;5.710;2023-05-02T12:20:54;12.60;99.90
18502;DHT22;68437;52.236;5.710;2023-05-02T12:23:23;12.70;99.90
18502;DHT22;68437;52.236;5.710;2023-05-02T12:25:51;12.90;99.90
18502;DHT22;68437;52.236;5.710;2023-05-02T12:28:19;12.90;99.90
18502;DHT22;68437;52.236;5.710;2023-05-02T12:30:49;13.10;99.90
18502;DHT22;68437;52.236;5.710;2023-05-02T12:33:18;12.80;99.90
18502;DHT22;68437;52.236;5.710;2023-05-02T12:35:45;12.60;99.90
18502;DHT22;68437;52.236;5.710;2023-05-02T12:38:14;12.90;99.90
18502;DHT22;68437;52.236;5.710;2023-05-02T12:40:48;13.20;99.90
18502;DHT22;68437;52.236;5.710;2023-05-02T12:43:16;13.20;99.90
18502;DHT22;68437;52.236;5.710;2023-05-02T12:45:46;13.10;99.90
18502;DHT22;68437;52.236;5.710;2023-05-02T12:48:19;13.20;99.90
18502;DHT22;68437;52.236;5.710;2023-05-02T12:50:47;13.30;99.90
18502;DHT22;68437;52.236;5.710;2023-05-02T12:53:13;13.20;99.90
18502;DHT22;68437;52.236;5.710;2023-05-02T12:55:40;13.50;99.90
18502;DHT22;68437;52.236;5.710;2023-05-02T12:58:08;13.50;99.90
18502;DHT22;68437;52.236;5.710;2023-05-02T13:00:38;13.40;99.90
18502;DHT22;68437;52.236;5.710;2023-05-02T13:03:05;13.40;99.90
18502;DHT22;68437;52.236;5.710;2023-05-02T13:05:34;13.60;99.90
18502;DHT22;68437;52.236;5.710;2023-05-02T13:08:01;13.60;99.90
18502;DHT22;68437;52.236;5.710;2023-05-02T13:10:28;13.00;99.90
18502;DHT22;68437;52.236;5.710;2023-05-02T13:12:55;13.00;99.90
18502;DHT22;68437;52.236;5.710;2023-05-02T13:15:22;13.10;99.90
18502;DHT22;68437;52.236;5.710;2023-05-02T13:17:51;13.00;99.90
18502;DHT22;68437;52.236;5.710;2023-05-02T13:20:21;13.10;99.90
18502;DHT22;68437;52.236;5.710;2023-05-02T13:22:49;13.50;99.90
18502;DHT22;68437;52.236;5.710;2023-05-02T13:25:16;13.60;99.90
18502;DHT22;68437;52.236;5.710;2023-05-02T13:27:42;13.70;99.90
18502;DHT22;68437;52.236;5.710;2023-05-02T13:30:11;13.70;99.90
18502;DHT22;68437;52.236;5.710;2023-05-02T13:32:38;13.30;99.90
18502;DHT22;68437;52.236;5.710;2023-05-02T13:35:06;13.00;99.90
18502;DHT22;68437;52.236;5.710;2023-05-02T13:37:33;13.10;99.90
18502;DHT22;68437;52.236;5.710;2023-05-02T13:40:01;13.10;99.90
18502;DHT22;68437;52.236;5.710;2023-05-02T13:42:29;13.30;99.90
18502;DHT22;68437;52.236;5.710;2023-05-02T13:44:56;13.40;99.90
18502;DHT22;68437;52.236;5.710;2023-05-02T13:47:27;13.90;99.90
18502;DHT22;68437;52.236;5.710;2023-05-02T13:49:54;13.90;99.90
18502;DHT22;68437;52.236;5.710;2023-05-02T13:52:21;13.90;99.90
18502;DHT22;68437;52.236;5.710;2023-05-02T13:54:47;13.60;99.90
18502;DHT22;68437;52.236;5.710;2023-05-02T13:57:16;13.00;99.90
18502;DHT22;68437;52.236;5.710;2023-05-02T13:59:42;12.70;99.90
18502;DHT22;68437;52.236;5.710;2023-05-02T14:02:09;12.60;99.90
18502;DHT22;68437;52.236;5.710;2023-05-02T14:04:36;12.60;99.90
18502;DHT22;68437;52.236;5.710;2023-05-02T14:07:03;12.70;99.90
18502;DHT22;68437;52.236;5.710;2023-05-02T14:09:29;12.90;99.90
18502;DHT22;68437;52.236;5.710;2023-05-02T14:11:56;13.10;99.90
18502;DHT22;68437;52.236;5.710;2023-05-02T14:14:25;13.00;99.90
18502;DHT22;68437;52.236;5.710;2023-05-02T14:16:52;13.00;99.90
18502;DHT22;68437;52.236;5.710;2023-05-02T14:19:19;13.20;99.90
18502;DHT22;68437;52.236;5.710;2023-05-02T14:21:45;13.20;99.90
18502;DHT22;68437;52.236;5.710;2023-05-02T14:24:12;13.30;99.90
18502;DHT22;68437;52.236;5.710;2023-05-02T14:26:42;13.50;99.90
18502;DHT22;68437;52.236;5.710;2023-05-02T14:29:09;13.50;99.90
18502;DHT22;68437;52.236;5.710;2023-05-02T14:31:37;13.70;99.90
18502;DHT22;68437;52.236;5.710;2023-05-02T14:34:04;13.60;99.90
18502;DHT22;68437;52.236;5.710;2023-05-02T14:36:31;13.40;99.90
18502;DHT22;68437;52.236;5.710;2023-05-02T14:38:58;13.50;99.90
18502;DHT22;68437;52.236;5.710;2023-05-02T14:41:24;13.70;99.90
18502;DHT22;68437;52.236;5.710;2023-05-02T14:43:52;13.80;99.90
18502;DHT22;68437;52.236;5.710;2023-05-02T14:46:19;13.50;99.90
18502;DHT22;68437;52.236;5.710;2023-05-02T14:48:47;12.70;99.90
18502;DHT22;68437;52.236;5.710;2023-05-02T14:51:14;12.40;99.90
18502;DHT22;68437;52.236;5.710;2023-05-02T14:53:41;12.70;99.90
18502;DHT22;68437;52.236;5.710;2023-05-02T14:56:13;13.20;99.90
18502;DHT22;68437;52.236;5.710;2023-05-02T14:58:43;13.30;99.90
18502;DHT22;68437;52.236;5.710;2023-05-02T15:01:15;13.40;99.90
18502;DHT22;68437;52.236;5.710;2023-05-02T15:03:42;13.20;99.90
18502;DHT22;68437;52.236;5.710;2023-05-02T15:06:11;12.60;99.90
18502;DHT22;68437;52.236;5.710;2023-05-02T15:08:38;12.50;99.90
18502;DHT22;68437;52.236;5.710;2023-05-02T15:11:05;12.90;99.90
18502;DHT22;68437;52.236;5.710;2023-05-02T15:13:32;13.40;99.90
18502;DHT22;68437;52.236;5.710;2023-05-02T15:16:03;13.50;99.90
18502;DHT22;68437;52.236;5.710;2023-05-02T15:18:30;13.70;99.90
18502;DHT22;68437;52.236;5.710;2023-05-02T15:20:57;13.80;99.90
18502;DHT22;68437;52.236;5.710;2023-05-02T15:23:25;13.80;99.90
18502;DHT22;68437;52.236;5.710;2023-05-02T15:25:52;14.20;99.90
18502;DHT22;68437;52.236;5.710;2023-05-02T15:28:19;14.40;99.90
18502;DHT22;68437;52.236;5.710;2023-05-02T15:30:46;14.40;99.90
18502;DHT22;68437;52.236;5.710;2023-05-02T15:33:14;14.20;99.90
18502;DHT22;68437;52.236;5.710;2023-05-02T15:35:50;13.70;99.90
18502;DHT22;68437;52.236;5.710;2023-05-02T15:38:17;13.20;99.90
18502;DHT22;68437;52.236;5.710;2023-05-02T15:40:52;12.60;99.90
18502;DHT22;68437;52.236;5.710;2023-05-02T15:43:19;12.20;99.90
18502;DHT22;68437;52.236;5.710;2023-05-02T15:45:49;12.10;99.90
18502;DHT22;68437;52.236;5.710;2023-05-02T15:48:16;11.90;99.90